Latest Weather Observations for Gabo Island

IDV60801

Issued at 9:02 am EDT Saturday 28 March 2015 (issued every 30 minutes, with the page automatically refreshed every 10 minutes)

About weather observations | Map of weather stations | Latest weather observations for VIC | Other Formats
Station Details ID: 084016 Name: GABO ISLAND LIGHTHOUSE Lat: -37.57 Lon: 149.92 Height: 15.2 m
Data from the previous 72 hours. | See also: Recent months at Gabo Island
Date/Time
EDT
Temp
°C
App
Temp
°C
Dew
Point
Rel
Hum
%
Delta-T
°C
Wind Press
QNH
hPa
Press
MSL
hPa
Rain
since 9 am
mm
Dir
 
Spd
km/h
Gust
km/h
Spd
kts
Gust
kts
28/09:00am 14.2 7.2 10.1 76 2.1 W 37 48 20 26 1023.0 1022.8 4.2
28/08:30am 14.0 6.7 10.3 78 1.9 W 39 48 21 26 1022.5 - 4.2
28/08:00am 13.9 7.1 10.6 80 1.7 W 37 48 20 26 1022.3 - 4.2
28/07:30am 13.4 5.8 10.5 82 1.5 W 41 50 22 27 1022.0 - 4.2
28/07:00am 13.5 7.2 11.0 85 1.3 WSW 35 44 19 24 1021.7 - 4.2
28/06:30am 12.9 6.3 11.4 91 0.8 WSW 37 46 20 25 1021.5 - 3.8
28/06:00am 12.8 8.4 11.7 93 0.6 W 26 43 14 23 1021.3 1021.2 3.4
28/05:30am 12.8 8.1 11.9 94 0.5 W 28 35 15 19 1021.1 - 2.8
28/05:00am 12.8 6.0 11.9 94 0.5 W 39 46 21 25 1020.8 - 2.0
28/04:30am 12.9 6.1 11.8 93 0.6 W 39 48 21 26 1020.7 - 1.6
28/04:00am 13.3 5.2 12.2 93 0.6 W 46 57 25 31 1020.4 - 0.8
28/03:30am 13.3 4.0 12.0 92 0.7 W 52 61 28 33 1020.1 - 0.6
28/03:00am 14.1 7.3 12.1 88 1.1 WSW 39 48 21 26 1020.2 1020.1 0.4
28/02:30am 14.6 5.9 11.4 81 1.7 WSW 48 63 26 34 1020.3 - 0.0
28/02:00am 14.4 6.2 11.6 83 1.5 W 46 57 25 31 1019.9 - 0.0
28/01:30am 14.0 5.2 11.0 82 1.6 W 48 61 26 33 1019.7 - 0.0
28/01:00am 14.3 5.2 11.3 82 1.6 W 50 61 27 33 1019.5 - 0.0
28/12:30am 14.6 5.3 10.4 76 2.2 W 50 63 27 34 1019.4 - 0.0
28/12:00am 14.1 7.2 11.5 84 1.4 W 39 50 21 27 1019.5 1019.3 0.0
 
Date/Time
EDT
Temp
°C
App
Temp
°C
Dew
Point
Rel
Hum
%
Delta-T
°C
Wind Press
QNH
hPa
Press
MSL
hPa
Rain
since 9 am
mm
Dir
 
Spd
km/h
Gust
km/h
Spd
kts
Gust
kts
27/11:34pm 14.8 6.9 11.6 81 1.7 W 44 63 24 34 1019.3 - 0.0
27/11:30pm 15.0 7.1 11.6 80 1.8 W 44 57 24 31 1019.3 - 0.0
27/11:00pm 15.0 6.4 11.6 80 1.8 W 48 59 26 32 1019.2 - 0.0
27/10:39pm 15.2 7.3 11.5 78 2.0 W 44 67 24 36 1019.0 - 0.0
27/10:30pm 15.2 7.3 11.5 78 2.0 W 44 56 24 30 1019.0 - 0.0
27/10:00pm 15.5 6.8 11.4 76 2.2 WSW 48 61 26 33 1018.9 - 0.0
27/09:30pm 15.7 6.5 11.0 73 2.5 WSW 50 63 27 34 1018.4 - 0.0
27/09:00pm 16.3 5.4 10.9 70 2.9 WSW 59 76 32 41 1018.0 1017.8 0.0
27/08:33pm 16.7 6.1 10.0 64 3.5 WSW 56 76 30 41 1017.6 - 0.0
27/08:30pm 16.8 6.6 10.2 65 3.5 WSW 54 67 29 36 1017.6 - 0.0
27/08:00pm 16.6 6.0 10.1 65 3.4 WSW 56 69 30 37 1017.1 - 0.0
27/07:30pm 16.5 5.3 10.0 65 3.4 W 59 78 32 42 1016.6 - 0.0
27/07:00pm 16.8 7.4 10.2 65 3.5 W 50 74 27 40 1016.4 - 0.0
27/06:50pm 17.0 7.5 9.8 62 3.8 W 50 69 27 37 1016.3 - 0.0
27/06:30pm 16.9 8.1 9.6 62 3.8 W 46 63 25 34 1015.9 - 0.0
27/06:00pm 17.0 6.2 9.8 62 3.8 W 57 72 31 39 1015.4 1015.2 0.0
27/05:30pm 17.2 6.3 9.6 61 4.0 W 57 76 31 41 1015.2 - 0.0
27/05:00pm 17.3 5.6 9.5 60 4.1 W 61 83 33 45 1015.0 - 0.0
27/04:30pm 18.1 6.0 9.3 56 4.6 W 63 83 34 45 1014.7 - 0.0
27/04:01pm 18.2 8.7 9.7 57 4.5 W 50 69 27 37 1014.5 - 0.0
27/04:00pm 18.3 8.3 9.3 55 4.7 W 52 69 28 37 1014.5 - 0.0
27/03:37pm 17.3 7.3 9.5 60 4.1 W 52 70 28 38 1014.9 - 0.0
27/03:30pm 17.1 6.7 9.2 59 4.1 W 54 69 29 37 1015.1 - 0.0
27/03:01pm 18.5 8.5 9.4 55 4.8 W 52 70 28 38 1015.2 - 0.0
27/03:00pm 17.8 7.8 9.2 57 4.5 W 52 70 28 38 1015.2 1015.1 0.0
27/02:55pm 17.8 7.8 9.4 58 4.4 W 52 70 28 38 1015.2 - 0.0
27/02:30pm 17.3 7.4 9.7 61 4.0 W 52 69 28 37 1015.7 - 0.0
27/02:03pm 17.9 8.2 9.1 56 4.6 WSW 50 69 27 37 1015.7 - 0.0
27/02:00pm 17.6 7.4 8.4 55 4.7 WSW 52 69 28 37 1015.7 - 0.0
27/01:57pm 18.0 8.4 9.4 57 4.5 WSW 50 69 27 37 1015.8 - 0.0
27/01:30pm 18.3 7.8 8.9 54 4.9 WSW 54 67 29 36 1015.8 - 0.0
27/01:00pm 18.1 7.0 8.1 52 5.1 WSW 56 76 30 41 1015.7 - 0.0
27/12:30pm 18.4 5.4 7.0 47 5.7 W 65 83 35 45 1015.6 - 0.0
27/12:00pm 19.0 7.0 4.6 38 6.9 W 57 80 31 43 1015.4 1015.3 0.0
27/11:55am 19.0 7.7 5.5 41 6.6 W 54 72 29 39 1015.5 - 0.0
27/11:51am 18.9 8.6 6.7 45 6.1 W 50 76 27 41 1015.5 - 0.0
27/11:41am 18.0 3.3 5.7 44 6.0 W 72 91 39 49 1015.5 - 0.0
27/11:30am 18.7 8.4 8.0 49 5.5 W 52 70 28 38 1015.5 - 0.0
27/11:17am 18.9 7.5 4.8 39 6.8 W 54 78 29 42 1015.4 - 0.0
27/11:00am 19.3 11.3 5.9 41 6.6 W 37 56 20 30 1015.5 - 0.0
27/10:51am 18.5 10.3 4.5 39 6.7 W 37 56 20 30 1015.5 - 0.0
27/10:30am 18.5 12.8 5.0 41 6.5 W 24 33 13 18 1015.8 - 0.0
27/10:00am 17.8 13.6 5.7 45 5.9 W 17 22 9 12 1016.0 - 0.0
27/09:30am 16.8 13.1 4.2 43 5.9 WNW 13 17 7 9 1016.1 - 0.0
27/09:00am 15.9 12.0 3.4 43 5.7 WNW 13 19 7 10 1016.3 1016.3 0.0
27/08:30am 15.3 11.5 3.7 46 5.3 WNW 13 20 7 11 1016.3 - 0.0
27/08:00am 14.7 10.7 2.9 45 5.3 NW 13 20 7 11 1016.1 - 0.0
27/07:30am 14.0 9.9 2.4 45 5.1 NW 13 19 7 10 1015.8 - 0.0
27/07:00am 14.1 9.6 2.0 44 5.3 NW 15 20 8 11 1015.4 - 0.0
27/06:30am 13.9 9.4 2.0 44 5.2 NW 15 20 8 11 1015.2 - 0.0
27/06:00am 13.8 9.5 1.2 42 5.4 NNW 13 19 7 10 1015.1 1014.9 0.0
27/05:30am 13.9 9.7 1.4 42 5.4 NNW 13 19 7 10 1014.9 - 0.0
27/05:00am 14.3 9.6 0.7 39 5.8 NW 15 20 8 11 1015.0 - 0.0
27/04:30am 14.4 9.2 0.1 37 6.0 NNW 17 26 9 14 1015.2 - 0.0
27/04:00am 14.2 9.4 0.5 39 5.8 NNW 15 20 8 11 1015.2 - 0.0
27/03:30am 14.3 9.1 0.3 38 5.9 NNW 17 26 9 14 1015.2 - 0.0
27/03:00am 14.6 9.0 -0.2 36 6.2 NNW 19 26 10 14 1015.5 1015.5 0.0
27/02:30am 14.5 9.3 0.3 38 6.0 NNW 17 24 9 13 1015.8 - 0.0
27/02:00am 14.7 9.2 0.6 38 6.0 NW 19 24 10 13 1016.0 - 0.0
27/01:30am 14.8 9.0 0.1 36 6.2 NW 20 28 11 15 1016.1 - 0.0
27/01:00am 14.3 9.3 1.6 42 5.5 NNW 17 22 9 12 1016.4 - 0.0
27/12:30am 14.5 9.8 1.0 40 5.8 NNW 15 22 8 12 1016.4 - 0.0
27/12:00am 12.7 9.5 5.1 60 3.5 NNW 11 17 6 9 1016.6 1016.5 0.0
 
Date/Time
EDT
Temp
°C
App
Temp
°C
Dew
Point
Rel
Hum
%
Delta-T
°C
Wind Press
QNH
hPa
Press
MSL
hPa
Rain
since 9 am
mm
Dir
 
Spd
km/h
Gust
km/h
Spd
kts
Gust
kts
26/11:30pm 13.3 11.6 7.6 68 2.8 N 6 7 3 4 1016.7 - 0.0
26/11:00pm 13.3 11.2 8.3 72 2.5 N 9 15 5 8 1016.9 - 0.0
26/10:30pm 13.5 10.0 7.1 65 3.1 N 15 17 8 9 1017.2 - 0.0
26/10:00pm 13.5 10.9 7.8 68 2.8 NNW 11 13 6 7 1017.4 - 0.0
26/09:30pm 13.1 10.5 7.8 70 2.6 NNW 11 11 6 6 1017.4 - 0.0
26/09:00pm 14.3 11.8 8.3 67 3.0 WNW 11 13 6 7 1017.3 1017.2 0.0
26/08:30pm 15.4 12.2 6.8 56 4.2 WSW 13 17 7 9 1017.1 - 0.0
26/08:00pm 16.5 13.1 7.5 55 4.5 SW 15 19 8 10 1016.7 - 0.0
26/07:30pm 16.2 12.4 7.4 56 4.4 SSW 17 20 9 11 1016.3 - 0.0
26/07:00pm 16.6 12.4 7.6 55 4.5 SSW 19 24 10 13 1016.2 - 0.0
26/06:30pm 16.9 11.5 7.8 55 4.6 SW 26 32 14 17 1015.9 - 0.0
26/06:00pm 17.2 11.0 7.9 54 4.7 SW 30 35 16 19 1015.8 1015.7 0.0
26/05:30pm 16.9 10.3 7.8 55 4.6 SW 32 41 17 22 1015.5 - 0.0
26/05:00pm 16.7 9.9 9.4 62 3.8 SSW 35 41 19 22 1015.4 - 0.0
26/04:30pm 16.7 9.7 8.5 58 4.2 SW 35 43 19 23 1015.4 - 0.0
26/04:00pm 16.5 8.4 8.5 59 4.1 SW 41 48 22 26 1015.0 - 0.0
26/03:30pm 16.7 9.2 9.4 62 3.8 SW 39 48 21 26 1015.3 - 0.0
26/03:00pm 16.6 7.9 9.9 64 3.5 SW 46 54 25 29 1015.0 1014.9 0.0
26/02:30pm 16.8 8.5 10.0 64 3.6 SW 44 56 24 30 1015.0 - 0.0
26/02:00pm 17.3 8.0 10.6 64 3.6 SSW 50 57 27 31 1014.9 - 0.0
26/01:30pm 17.9 9.4 11.9 68 3.3 SSW 48 57 26 31 1014.9 - 0.0
26/01:00pm 18.1 9.8 11.5 65 3.6 SSW 46 54 25 29 1014.8 - 0.0
26/12:30pm 18.5 12.2 12.2 66 3.5 SSW 37 46 20 25 1015.1 - 0.0
26/12:22pm 19.7 13.7 12.0 61 4.3 SSW 35 41 19 22 1015.2 - 0.0
26/12:00pm 19.9 18.4 12.0 60 4.4 SSW 11 13 6 7 1015.0 1014.9 0.0
26/11:30am 19.3 16.7 11.9 62 4.1 SW 17 20 9 11 1015.2 - 0.0
26/11:00am 19.0 15.7 11.7 62 4.0 SW 20 24 11 13 1015.3 - 0.0
26/10:30am 19.3 16.7 11.9 62 4.1 WSW 17 20 9 11 1015.2 - 0.0
26/10:00am 19.0 16.1 10.9 59 4.4 W 17 20 9 11 1015.1 - 0.0
26/09:30am 18.3 15.5 11.3 63 3.8 WNW 17 20 9 11 1015.1 - 0.0
26/09:00am 17.3 14.4 12.2 72 2.8 W 19 24 10 13 1015.1 1014.9 0.0
26/08:30am 16.3 12.4 12.1 76 2.3 WSW 24 35 13 19 1014.9 - 0.0
26/08:00am 15.9 13.5 12.8 82 1.7 WNW 17 20 9 11 1014.5 - 0.0
26/07:30am 15.5 13.8 12.6 83 1.6 W 13 17 7 9 1014.3 - 0.0
26/07:00am 15.6 15.1 12.5 82 1.7 WSW 7 9 4 5 1014.2 - 0.0
26/06:30am 16.7 14.7 11.5 71 2.8 WNW 13 20 7 11 1014.2 - 0.0
26/06:00am 17.7 13.4 12.1 69 3.1 N 26 32 14 17 1013.9 1013.8 0.0
26/05:30am 17.6 13.4 12.4 71 2.9 N 26 33 14 18 1013.9 - 0.0
26/05:00am 17.6 13.8 12.4 71 2.9 N 24 32 13 17 1013.8 - 0.0
26/04:30am 17.6 12.7 12.4 71 2.9 N 30 37 16 20 1013.9 - 0.0
26/04:00am 17.8 12.6 12.8 72 2.8 NNE 32 39 17 21 1014.0 - 0.0
26/03:30am 17.9 12.5 12.9 72 2.8 NNE 33 43 18 23 1014.0 - 0.0
26/03:00am 18.1 12.3 12.7 70 3.0 NNE 35 43 19 23 1014.3 1014.1 0.0
26/02:30am 18.2 11.7 12.8 71 3.0 NNE 39 46 21 25 1014.3 - 0.0
26/02:00am 18.2 12.6 13.2 72 2.8 NNE 35 46 19 25 1014.5 - 0.0
26/01:30am 18.5 13.8 13.2 71 3.0 NNE 30 39 16 21 1014.8 - 0.0
26/01:00am 18.9 12.7 12.6 67 3.5 NNE 37 48 20 26 1014.9 - 0.0
26/12:30am 18.7 13.8 12.4 67 3.5 NNE 30 43 16 23 1015.4 - 0.0
26/12:00am 18.9 13.3 12.2 65 3.7 NNE 33 44 18 24 1015.8 1015.7 0.0
 
Date/Time
EDT
Temp
°C
App
Temp
°C
Dew
Point
Rel
Hum
%
Delta-T
°C
Wind Press
QNH
hPa
Press
MSL
hPa
Rain
since 9 am
mm
Dir
 
Spd
km/h
Gust
km/h
Spd
kts
Gust
kts
25/11:30pm 18.8 13.5 12.5 67 3.5 NNE 32 43 17 23 1016.0 - 0.0
25/11:00pm 18.6 13.6 12.1 66 3.6 NNE 30 35 16 19 1016.1 - 0.0
25/10:30pm 18.6 13.5 11.9 65 3.7 NNE 30 35 16 19 1016.4 - 0.0
25/10:00pm 18.4 13.6 11.6 64 3.7 NNE 28 35 15 19 1016.5 - 0.0
25/09:30pm 18.3 12.6 11.1 63 3.9 NE 32 35 17 19 1016.5 - 0.0
25/09:00pm 18.2 12.4 10.8 62 4.0 NE 32 35 17 19 1016.5 1016.3 0.0
25/08:30pm 18.0 12.5 10.5 61 4.0 NE 30 35 16 19 1016.4 - 0.0
25/08:00pm 18.0 12.5 10.7 62 3.9 NE 30 37 16 20 1016.2 - 0.0
25/07:30pm 17.9 12.4 10.6 62 3.9 NE 30 33 16 18 1016.1 - 0.0
25/07:00pm 17.9 14.4 12.1 69 3.2 NE 22 26 12 14 1016.1 - 0.0
25/06:30pm 17.9 14.7 11.9 68 3.3 NE 20 26 11 14 1016.1 - 0.0
25/06:00pm 18.2 15.0 12.0 67 3.4 NE 20 24 11 13 1015.9 1015.8 0.0
25/05:30pm 18.4 15.2 11.4 63 3.8 ENE 19 20 10 11 1015.7 - 0.0
25/05:00pm 18.6 16.5 11.3 62 4.0 E 13 17 7 9 1015.9 - 0.0
25/04:30pm 18.8 17.7 11.9 64 3.8 SE 9 13 5 7 1016.1 - 0.0
25/04:00pm 19.2 17.5 12.6 65 3.7 S 13 17 7 9 1016.7 - 0.0
25/03:30pm 19.4 17.0 12.8 65 3.7 SSW 17 20 9 11 1016.9 - 0.0
25/03:00pm 17.6 14.2 12.6 72 2.8 SW 22 24 12 13 1017.2 1017.1 0.0
25/02:30pm 17.8 13.1 13.2 74 2.6 SSW 30 33 16 18 1017.2 - 0.0
25/02:00pm 17.7 13.0 13.1 74 2.6 SSW 30 35 16 19 1017.3 - 0.0
25/01:30pm 18.1 14.5 13.1 72 2.8 SSW 24 28 13 15 1017.5 - 0.0
25/01:00pm 18.1 14.4 12.7 70 3.0 SW 24 28 13 15 1018.0 - 0.0
25/12:30pm 17.8 13.2 12.4 70 3.0 SW 28 32 15 17 1017.9 - 0.0
25/12:00pm 17.7 14.1 13.1 74 2.6 SW 24 30 13 16 1017.9 1017.8 0.0
25/11:30am 17.6 14.1 13.3 76 2.4 SW 24 28 13 15 1018.2 - 0.0
25/11:00am 17.2 14.0 13.1 77 2.3 SW 22 28 12 15 1018.4 - 0.0
25/10:30am 16.7 14.0 12.9 78 2.1 WSW 19 22 10 12 1018.2 - 0.0
25/10:00am 16.4 13.8 13.2 81 1.8 WSW 19 22 10 12 1017.9 - 0.0
25/09:30am 16.0 13.1 12.9 82 1.7 WSW 20 26 11 14 1017.9 - 0.0

Other Formats:

Comma delimited format used in spreadsheet applications
http://www.bom.gov.au/fwo/IDV60801/IDV60801.94933.axf

JavaScript Object Notation format (JSON) in row-major order
http://www.bom.gov.au/fwo/IDV60801/IDV60801.94933.json